sensor_id;sensor_type;location;lat;lon;timestamp;pressure;altitude;pressure_sealevel;temperature;humidity
48555;BME280;34336;48.270;16.716;2023-02-28T00:01:40;109325.25;;;18.16;68.37
48555;BME280;34336;48.270;16.716;2023-02-28T00:04:07;109325.25;;;18.16;68.00
48555;BME280;34336;48.270;16.716;2023-02-28T00:06:35;109325.25;;;18.16;68.22
48555;BME280;34336;48.270;16.716;2023-02-28T00:09:02;109325.25;;;18.16;68.33
48555;BME280;34336;48.270;16.716;2023-02-28T00:11:28;109325.25;;;18.16;68.05
48555;BME280;34336;48.270;16.716;2023-02-28T00:13:55;109325.25;;;18.16;68.21
48555;BME280;34336;48.270;16.716;2023-02-28T00:16:22;109325.25;;;18.16;67.94
48555;BME280;34336;48.270;16.716;2023-02-28T00:18:49;109325.25;;;18.16;67.57
48555;BME280;34336;48.270;16.716;2023-02-28T00:21:16;109325.25;;;18.16;67.70
48555;BME280;34336;48.270;16.716;2023-02-28T00:23:43;109325.25;;;18.16;67.25
48555;BME280;34336;48.270;16.716;2023-02-28T00:26:10;109325.25;;;18.16;67.42
48555;BME280;34336;48.270;16.716;2023-02-28T00:28:38;109325.25;;;18.16;67.83
48555;BME280;34336;48.270;16.716;2023-02-28T00:31:05;109325.25;;;18.16;67.24
48555;BME280;34336;48.270;16.716;2023-02-28T00:33:32;109325.25;;;18.16;67.52
48555;BME280;34336;48.270;16.716;2023-02-28T00:36:05;109325.25;;;18.16;67.47
48555;BME280;34336;48.270;16.716;2023-02-28T00:38:35;109325.25;;;18.16;67.18
48555;BME280;34336;48.270;16.716;2023-02-28T00:41:01;109325.25;;;18.16;67.42
48555;BME280;34336;48.270;16.716;2023-02-28T00:43:34;109325.25;;;18.16;66.87
48555;BME280;34336;48.270;16.716;2023-02-28T00:46:02;109325.25;;;18.16;67.50
48555;BME280;34336;48.270;16.716;2023-02-28T00:48:29;109325.25;;;18.16;66.94
48555;BME280;34336;48.270;16.716;2023-02-28T00:50:56;109325.25;;;18.16;67.33
48555;BME280;34336;48.270;16.716;2023-02-28T00:53:22;109325.25;;;18.16;66.84
48555;BME280;34336;48.270;16.716;2023-02-28T00:55:49;109325.25;;;18.16;67.61
48555;BME280;34336;48.270;16.716;2023-02-28T00:58:16;109325.25;;;18.16;67.07
48555;BME280;34336;48.270;16.716;2023-02-28T01:00:42;109325.25;;;18.16;67.48
48555;BME280;34336;48.270;16.716;2023-02-28T01:03:10;109325.25;;;18.16;66.91
48555;BME280;34336;48.270;16.716;2023-02-28T01:05:37;109325.25;;;18.16;66.89
48555;BME280;34336;48.270;16.716;2023-02-28T01:08:03;109325.25;;;18.16;68.00
48555;BME280;34336;48.270;16.716;2023-02-28T01:10:30;109325.25;;;18.16;68.07
48555;BME280;34336;48.270;16.716;2023-02-28T01:12:57;109325.25;;;18.16;68.03
48555;BME280;34336;48.270;16.716;2023-02-28T01:15:24;109325.25;;;18.16;67.07
48555;BME280;34336;48.270;16.716;2023-02-28T01:17:51;109325.25;;;18.16;67.30
48555;BME280;34336;48.270;16.716;2023-02-28T01:20:17;109325.25;;;18.16;66.81
48555;BME280;34336;48.270;16.716;2023-02-28T01:22:44;109325.25;;;18.16;66.82
48555;BME280;34336;48.270;16.716;2023-02-28T01:25:10;109325.25;;;18.16;66.89
48555;BME280;34336;48.270;16.716;2023-02-28T01:27:37;109325.25;;;18.16;67.15
48555;BME280;34336;48.270;16.716;2023-02-28T01:30:06;109325.25;;;18.16;67.77
48555;BME280;34336;48.270;16.716;2023-02-28T01:32:34;109325.25;;;18.16;68.05
48555;BME280;34336;48.270;16.716;2023-02-28T01:35:02;109325.25;;;18.16;68.50
48555;BME280;34336;48.270;16.716;2023-02-28T01:37:29;109325.25;;;18.16;68.89
48555;BME280;34336;48.270;16.716;2023-02-28T01:39:56;109325.25;;;18.16;68.45
48555;BME280;34336;48.270;16.716;2023-02-28T01:42:23;109325.25;;;18.16;68.10
48555;BME280;34336;48.270;16.716;2023-02-28T01:44:58;109325.25;;;18.16;68.44
48555;BME280;34336;48.270;16.716;2023-02-28T01:47:27;109325.25;;;18.16;68.74
48555;BME280;34336;48.270;16.716;2023-02-28T01:49:55;109325.25;;;18.16;69.32
48555;BME280;34336;48.270;16.716;2023-02-28T01:52:22;109325.25;;;18.16;69.23
48555;BME280;34336;48.270;16.716;2023-02-28T01:54:53;109325.25;;;18.16;69.51
48555;BME280;34336;48.270;16.716;2023-02-28T01:57:22;109325.25;;;18.16;69.79
48555;BME280;34336;48.270;16.716;2023-02-28T01:59:57;109325.25;;;18.16;70.65
48555;BME280;34336;48.270;16.716;2023-02-28T02:02:25;109325.25;;;18.16;70.37
48555;BME280;34336;48.270;16.716;2023-02-28T02:04:58;109325.25;;;18.16;70.69
48555;BME280;34336;48.270;16.716;2023-02-28T02:07:29;109325.25;;;18.16;70.19
48555;BME280;34336;48.270;16.716;2023-02-28T02:10:10;109325.25;;;18.16;70.21
48555;BME280;34336;48.270;16.716;2023-02-28T02:12:45;109325.25;;;18.16;71.05
48555;BME280;34336;48.270;16.716;2023-02-28T02:15:26;109325.25;;;18.16;70.84
48555;BME280;34336;48.270;16.716;2023-02-28T02:17:57;109325.25;;;18.16;70.66
48555;BME280;34336;48.270;16.716;2023-02-28T02:25:47;109325.25;;;18.16;69.46
48555;BME280;34336;48.270;16.716;2023-02-28T02:28:26;109325.25;;;18.16;68.93
48555;BME280;34336;48.270;16.716;2023-02-28T02:31:10;109325.25;;;18.16;68.83
48555;BME280;34336;48.270;16.716;2023-02-28T02:36:23;109325.25;;;18.16;69.39
48555;BME280;34336;48.270;16.716;2023-02-28T02:41:39;109325.25;;;18.16;70.06
48555;BME280;34336;48.270;16.716;2023-02-28T02:46:34;109325.25;;;18.16;70.64
48555;BME280;34336;48.270;16.716;2023-02-28T02:49:05;109325.25;;;18.16;70.17
48555;BME280;34336;48.270;16.716;2023-02-28T02:51:34;109325.25;;;18.16;70.23
48555;BME280;34336;48.270;16.716;2023-02-28T02:54:05;109325.25;;;18.16;70.22
48555;BME280;34336;48.270;16.716;2023-02-28T02:56:34;109325.25;;;18.16;69.93
48555;BME280;34336;48.270;16.716;2023-02-28T02:59:03;109325.25;;;18.16;70.31
48555;BME280;34336;48.270;16.716;2023-02-28T03:01:30;109325.25;;;18.16;69.61
48555;BME280;34336;48.270;16.716;2023-02-28T03:04:00;109325.25;;;18.16;70.11
48555;BME280;34336;48.270;16.716;2023-02-28T03:06:28;109325.25;;;18.16;69.84
48555;BME280;34336;48.270;16.716;2023-02-28T03:08:54;109325.25;;;18.16;69.68
48555;BME280;34336;48.270;16.716;2023-02-28T03:11:21;109325.25;;;18.16;69.72
48555;BME280;34336;48.270;16.716;2023-02-28T03:13:53;109325.25;;;18.16;69.79
48555;BME280;34336;48.270;16.716;2023-02-28T03:19:03;109325.25;;;18.16;70.02
48555;BME280;34336;48.270;16.716;2023-02-28T03:21:43;109325.25;;;18.16;70.42
48555;BME280;34336;48.270;16.716;2023-02-28T03:26:41;109325.25;;;18.16;70.39
48555;BME280;34336;48.270;16.716;2023-02-28T03:29:21;109325.25;;;18.16;70.19
48555;BME280;34336;48.270;16.716;2023-02-28T03:31:58;109325.25;;;18.16;70.75
48555;BME280;34336;48.270;16.716;2023-02-28T03:34:32;109325.25;;;18.16;70.64
48555;BME280;34336;48.270;16.716;2023-02-28T03:37:02;109325.25;;;18.16;71.11
48555;BME280;34336;48.270;16.716;2023-02-28T03:42:04;109325.25;;;18.16;72.46
48555;BME280;34336;48.270;16.716;2023-02-28T03:47:21;109325.25;;;18.16;73.07
48555;BME280;34336;48.270;16.716;2023-02-28T03:49:53;109325.25;;;18.16;73.39
48555;BME280;34336;48.270;16.716;2023-02-28T03:52:21;109325.25;;;18.16;73.37
48555;BME280;34336;48.270;16.716;2023-02-28T03:54:50;109325.25;;;18.16;73.46
48555;BME280;34336;48.270;16.716;2023-02-28T03:57:36;109325.25;;;18.16;73.24
48555;BME280;34336;48.270;16.716;2023-02-28T04:00:08;109325.25;;;18.16;74.39
48555;BME280;34336;48.270;16.716;2023-02-28T04:02:40;109325.25;;;18.16;74.51
48555;BME280;34336;48.270;16.716;2023-02-28T04:05:07;109325.25;;;18.16;74.75
48555;BME280;34336;48.270;16.716;2023-02-28T04:07:33;109325.25;;;18.16;74.86
48555;BME280;34336;48.270;16.716;2023-02-28T04:10:00;109325.25;;;18.16;75.31
48555;BME280;34336;48.270;16.716;2023-02-28T04:12:27;109325.25;;;18.16;75.05
48555;BME280;34336;48.270;16.716;2023-02-28T04:14:53;109325.25;;;18.16;75.24
48555;BME280;34336;48.270;16.716;2023-02-28T04:17:20;109325.25;;;18.16;75.29
48555;BME280;34336;48.270;16.716;2023-02-28T04:19:46;109325.25;;;18.16;75.10
48555;BME280;34336;48.270;16.716;2023-02-28T04:22:13;109325.25;;;18.16;75.13
48555;BME280;34336;48.270;16.716;2023-02-28T04:24:40;109325.25;;;18.16;75.69
48555;BME280;34336;48.270;16.716;2023-02-28T04:27:08;109325.25;;;18.16;76.09
48555;BME280;34336;48.270;16.716;2023-02-28T04:29:35;109325.25;;;18.16;76.74
48555;BME280;34336;48.270;16.716;2023-02-28T04:32:02;109325.25;;;18.16;77.24
48555;BME280;34336;48.270;16.716;2023-02-28T04:34:29;109325.25;;;18.16;78.10
48555;BME280;34336;48.270;16.716;2023-02-28T04:36:56;109325.25;;;18.16;77.93
48555;BME280;34336;48.270;16.716;2023-02-28T04:39:38;109325.25;;;18.16;77.71
48555;BME280;34336;48.270;16.716;2023-02-28T04:42:05;109325.25;;;18.16;78.74
48555;BME280;34336;48.270;16.716;2023-02-28T04:44:32;109325.25;;;18.16;79.26
48555;BME280;34336;48.270;16.716;2023-02-28T04:46:58;109325.25;;;18.16;79.51
48555;BME280;34336;48.270;16.716;2023-02-28T04:49:25;109325.25;;;18.16;80.36
48555;BME280;34336;48.270;16.716;2023-02-28T04:51:51;109325.25;;;18.16;81.60
48555;BME280;34336;48.270;16.716;2023-02-28T04:54:19;109325.25;;;18.16;82.37
48555;BME280;34336;48.270;16.716;2023-02-28T04:56:45;109325.25;;;18.16;82.65
48555;BME280;34336;48.270;16.716;2023-02-28T04:59:12;109325.25;;;18.16;83.06
48555;BME280;34336;48.270;16.716;2023-02-28T05:01:39;109325.25;;;18.16;83.63
48555;BME280;34336;48.270;16.716;2023-02-28T05:04:05;109325.25;;;18.16;83.87
48555;BME280;34336;48.270;16.716;2023-02-28T05:06:32;109325.25;;;18.16;83.94
48555;BME280;34336;48.270;16.716;2023-02-28T05:08:59;109325.25;;;18.16;83.76
48555;BME280;34336;48.270;16.716;2023-02-28T05:11:27;109325.25;;;18.16;83.92
48555;BME280;34336;48.270;16.716;2023-02-28T05:13:56;109325.25;;;18.16;83.95
48555;BME280;34336;48.270;16.716;2023-02-28T05:16:22;109325.25;;;18.16;83.82
48555;BME280;34336;48.270;16.716;2023-02-28T05:18:49;109325.25;;;18.16;83.70
48555;BME280;34336;48.270;16.716;2023-02-28T05:23:50;109325.25;;;18.16;84.09
48555;BME280;34336;48.270;16.716;2023-02-28T05:26:16;109325.25;;;18.16;84.40
48555;BME280;34336;48.270;16.716;2023-02-28T05:28:43;109325.25;;;18.16;84.40
48555;BME280;34336;48.270;16.716;2023-02-28T05:31:10;109325.25;;;18.16;84.91
48555;BME280;34336;48.270;16.716;2023-02-28T05:33:37;109325.25;;;18.16;85.47
48555;BME280;34336;48.270;16.716;2023-02-28T05:36:04;109325.25;;;18.16;85.26
48555;BME280;34336;48.270;16.716;2023-02-28T05:38:30;109325.25;;;18.16;84.91
48555;BME280;34336;48.270;16.716;2023-02-28T05:40:57;109325.25;;;18.16;84.87
48555;BME280;34336;48.270;16.716;2023-02-28T05:43:24;109325.25;;;18.16;84.94
48555;BME280;34336;48.270;16.716;2023-02-28T05:45:50;109325.25;;;18.16;84.74
48555;BME280;34336;48.270;16.716;2023-02-28T05:48:17;109325.25;;;18.16;83.55
48555;BME280;34336;48.270;16.716;2023-02-28T05:50:44;109325.25;;;18.16;83.47
48555;BME280;34336;48.270;16.716;2023-02-28T05:53:12;109325.25;;;18.16;82.90
48555;BME280;34336;48.270;16.716;2023-02-28T05:55:39;109325.25;;;18.16;82.35
48555;BME280;34336;48.270;16.716;2023-02-28T05:58:07;109325.25;;;18.16;82.33
48555;BME280;34336;48.270;16.716;2023-02-28T06:00:34;109325.25;;;18.16;81.82
48555;BME280;34336;48.270;16.716;2023-02-28T06:03:01;109325.25;;;18.16;81.38
48555;BME280;34336;48.270;16.716;2023-02-28T06:05:28;109325.25;;;18.16;80.75
48555;BME280;34336;48.270;16.716;2023-02-28T06:07:55;109325.25;;;18.16;80.83
48555;BME280;34336;48.270;16.716;2023-02-28T06:10:21;109325.25;;;18.16;80.90
48555;BME280;34336;48.270;16.716;2023-02-28T06:12:48;109325.25;;;18.16;80.36
48555;BME280;34336;48.270;16.716;2023-02-28T06:15:15;109325.25;;;18.16;79.70
48555;BME280;34336;48.270;16.716;2023-02-28T06:17:42;109325.25;;;18.16;79.70
48555;BME280;34336;48.270;16.716;2023-02-28T06:20:08;109325.25;;;18.16;78.94
48555;BME280;34336;48.270;16.716;2023-02-28T06:22:36;109325.25;;;18.16;78.88
48555;BME280;34336;48.270;16.716;2023-02-28T06:25:03;109325.25;;;18.16;78.27
48555;BME280;34336;48.270;16.716;2023-02-28T06:27:30;109325.25;;;18.16;78.72
48555;BME280;34336;48.270;16.716;2023-02-28T06:29:57;109325.25;;;18.16;78.96
48555;BME280;34336;48.270;16.716;2023-02-28T06:32:24;109325.25;;;18.16;79.12
48555;BME280;34336;48.270;16.716;2023-02-28T06:34:50;109325.25;;;18.16;80.01
48555;BME280;34336;48.270;16.716;2023-02-28T06:37:17;109325.25;;;18.16;79.67
48555;BME280;34336;48.270;16.716;2023-02-28T06:39:44;109325.25;;;18.16;79.04
48555;BME280;34336;48.270;16.716;2023-02-28T06:42:11;109325.25;;;18.16;78.49
48555;BME280;34336;48.270;16.716;2023-02-28T06:44:38;109325.25;;;18.16;77.93
48555;BME280;34336;48.270;16.716;2023-02-28T06:47:05;109325.25;;;18.16;78.24
48555;BME280;34336;48.270;16.716;2023-02-28T06:49:32;109325.25;;;18.16;77.25
48555;BME280;34336;48.270;16.716;2023-02-28T06:51:59;109325.25;;;18.16;76.92
48555;BME280;34336;48.270;16.716;2023-02-28T06:54:26;109325.25;;;18.16;75.74
48555;BME280;34336;48.270;16.716;2023-02-28T06:56:53;109325.25;;;18.16;75.57
48555;BME280;34336;48.270;16.716;2023-02-28T06:59:20;109325.25;;;18.16;74.31
48555;BME280;34336;48.270;16.716;2023-02-28T07:01:47;109325.25;;;18.16;75.27
48555;BME280;34336;48.270;16.716;2023-02-28T07:04:14;109325.25;;;18.16;74.47
48555;BME280;34336;48.270;16.716;2023-02-28T07:06:40;109325.25;;;18.16;73.41
48555;BME280;34336;48.270;16.716;2023-02-28T07:09:07;109325.25;;;18.16;72.00
48555;BME280;34336;48.270;16.716;2023-02-28T07:11:34;109325.25;;;18.16;73.41
48555;BME280;34336;48.270;16.716;2023-02-28T07:14:01;109325.25;;;18.16;71.98
48555;BME280;34336;48.270;16.716;2023-02-28T07:16:27;109325.25;;;18.16;69.76
48555;BME280;34336;48.270;16.716;2023-02-28T07:18:54;109325.25;;;18.16;67.66
48555;BME280;34336;48.270;16.716;2023-02-28T07:21:21;109325.25;;;18.16;67.18
48555;BME280;34336;48.270;16.716;2023-02-28T07:23:48;109325.25;;;18.16;66.52
48555;BME280;34336;48.270;16.716;2023-02-28T07:26:15;109325.25;;;18.16;66.04
48555;BME280;34336;48.270;16.716;2023-02-28T07:28:43;109325.25;;;18.16;63.63
48555;BME280;34336;48.270;16.716;2023-02-28T07:31:11;109325.25;;;18.16;60.09
48555;BME280;34336;48.270;16.716;2023-02-28T07:33:38;109325.25;;;18.16;58.65
48555;BME280;34336;48.270;16.716;2023-02-28T07:36:08;109325.25;;;18.16;57.65
48555;BME280;34336;48.270;16.716;2023-02-28T07:38:41;109325.25;;;18.16;57.48
48555;BME280;34336;48.270;16.716;2023-02-28T07:41:08;109325.25;;;18.16;54.31
48555;BME280;34336;48.270;16.716;2023-02-28T07:43:35;109325.25;;;18.16;54.79
48555;BME280;34336;48.270;16.716;2023-02-28T07:46:06;109325.25;;;18.16;55.69
48555;BME280;34336;48.270;16.716;2023-02-28T07:48:33;109325.25;;;18.16;55.73
48555;BME280;34336;48.270;16.716;2023-02-28T07:51:01;109325.25;;;18.16;53.04
48555;BME280;34336;48.270;16.716;2023-02-28T07:53:28;109325.25;;;18.16;53.36
48555;BME280;34336;48.270;16.716;2023-02-28T07:55:58;109325.25;;;18.16;53.23
48555;BME280;34336;48.270;16.716;2023-02-28T07:58:25;109325.25;;;18.16;53.65
48555;BME280;34336;48.270;16.716;2023-02-28T08:00:52;109325.25;;;18.16;53.26
48555;BME280;34336;48.270;16.716;2023-02-28T08:03:19;109325.25;;;18.16;53.15
48555;BME280;34336;48.270;16.716;2023-02-28T08:05:46;109325.25;;;18.16;54.05
48555;BME280;34336;48.270;16.716;2023-02-28T08:08:13;109325.25;;;18.16;54.33
48555;BME280;34336;48.270;16.716;2023-02-28T08:10:39;109325.25;;;18.16;56.61
48555;BME280;34336;48.270;16.716;2023-02-28T08:13:06;109325.25;;;18.16;54.11
48555;BME280;34336;48.270;16.716;2023-02-28T08:15:33;109325.25;;;18.16;54.58
48555;BME280;34336;48.270;16.716;2023-02-28T08:17:59;109325.25;;;18.16;56.33
48555;BME280;34336;48.270;16.716;2023-02-28T08:20:26;109325.25;;;18.16;54.16
48555;BME280;34336;48.270;16.716;2023-02-28T08:22:53;109325.25;;;18.16;53.45
48555;BME280;34336;48.270;16.716;2023-02-28T08:25:19;109325.25;;;18.16;52.44
48555;BME280;34336;48.270;16.716;2023-02-28T08:27:46;109325.25;;;18.16;53.37
48555;BME280;34336;48.270;16.716;2023-02-28T08:30:13;109325.25;;;18.16;55.69
48555;BME280;34336;48.270;16.716;2023-02-28T08:32:40;109325.25;;;18.16;55.90
48555;BME280;34336;48.270;16.716;2023-02-28T08:35:07;109325.25;;;18.16;53.42
48555;BME280;34336;48.270;16.716;2023-02-28T08:37:35;109325.25;;;18.16;53.81
48555;BME280;34336;48.270;16.716;2023-02-28T08:40:02;109325.25;;;18.16;53.77
48555;BME280;34336;48.270;16.716;2023-02-28T08:42:31;109325.25;;;18.16;52.09
48555;BME280;34336;48.270;16.716;2023-02-28T08:44:58;109325.25;;;18.16;52.04
48555;BME280;34336;48.270;16.716;2023-02-28T08:47:24;109325.25;;;18.16;53.31
48555;BME280;34336;48.270;16.716;2023-02-28T08:49:51;109325.25;;;18.16;54.11
48555;BME280;34336;48.270;16.716;2023-02-28T08:52:17;109325.25;;;18.16;54.48
48555;BME280;34336;48.270;16.716;2023-02-28T08:54:44;109325.25;;;18.16;54.34
48555;BME280;34336;48.270;16.716;2023-02-28T08:57:10;109325.25;;;18.16;56.47
48555;BME280;34336;48.270;16.716;2023-02-28T08:59:37;109325.25;;;18.16;55.99
48555;BME280;34336;48.270;16.716;2023-02-28T09:02:03;109325.25;;;18.16;57.70
48555;BME280;34336;48.270;16.716;2023-02-28T09:04:30;109325.25;;;18.16;55.98
48555;BME280;34336;48.270;16.716;2023-02-28T09:06:57;109325.25;;;18.16;55.93
48555;BME280;34336;48.270;16.716;2023-02-28T09:09:23;109325.25;;;18.16;55.75
48555;BME280;34336;48.270;16.716;2023-02-28T09:11:50;109325.25;;;18.16;55.50
48555;BME280;34336;48.270;16.716;2023-02-28T09:14:16;109325.25;;;18.16;53.97
48555;BME280;34336;48.270;16.716;2023-02-28T09:16:43;109325.25;;;18.16;54.50
48555;BME280;34336;48.270;16.716;2023-02-28T09:19:11;109325.25;;;18.16;54.58
48555;BME280;34336;48.270;16.716;2023-02-28T09:21:37;109325.25;;;18.16;55.48
48555;BME280;34336;48.270;16.716;2023-02-28T09:24:04;109325.25;;;18.16;54.31
48555;BME280;34336;48.270;16.716;2023-02-28T09:26:31;109325.25;;;18.16;54.59
48555;BME280;34336;48.270;16.716;2023-02-28T09:29:08;109325.25;;;18.16;53.66
48555;BME280;34336;48.270;16.716;2023-02-28T09:31:35;109325.25;;;18.16;53.05
48555;BME280;34336;48.270;16.716;2023-02-28T09:34:01;109325.25;;;18.16;52.06
48555;BME280;34336;48.270;16.716;2023-02-28T09:36:28;109325.25;;;18.16;51.67
48555;BME280;34336;48.270;16.716;2023-02-28T09:39:09;109325.25;;;18.16;52.52
48555;BME280;34336;48.270;16.716;2023-02-28T09:41:37;109325.25;;;18.16;53.26
48555;BME280;34336;48.270;16.716;2023-02-28T09:44:06;109325.25;;;18.16;52.77
48555;BME280;34336;48.270;16.716;2023-02-28T09:46:37;109325.25;;;18.16;52.80
48555;BME280;34336;48.270;16.716;2023-02-28T09:49:07;109325.25;;;18.16;53.09
48555;BME280;34336;48.270;16.716;2023-02-28T09:51:44;109325.25;;;18.16;52.41
48555;BME280;34336;48.270;16.716;2023-02-28T09:54:16;109325.25;;;18.16;53.13
48555;BME280;34336;48.270;16.716;2023-02-28T09:59:42;109325.25;;;18.16;53.31
48555;BME280;34336;48.270;16.716;2023-02-28T10:04:50;109325.25;;;18.16;50.33
48555;BME280;34336;48.270;16.716;2023-02-28T10:09:57;109325.25;;;18.16;49.51
48555;BME280;34336;48.270;16.716;2023-02-28T10:12:25;109325.25;;;18.16;50.84
48555;BME280;34336;48.270;16.716;2023-02-28T10:14:52;109325.25;;;18.16;49.79
48555;BME280;34336;48.270;16.716;2023-02-28T10:17:24;109325.25;;;18.16;49.34
48555;BME280;34336;48.270;16.716;2023-02-28T10:24:46;109325.25;;;18.16;49.53
48555;BME280;34336;48.270;16.716;2023-02-28T10:27:24;109325.25;;;18.16;49.98
48555;BME280;34336;48.270;16.716;2023-02-28T10:29:55;109325.25;;;18.16;49.85
48555;BME280;34336;48.270;16.716;2023-02-28T10:32:26;109325.25;;;18.16;50.25
48555;BME280;34336;48.270;16.716;2023-02-28T10:37:33;109325.25;;;18.16;52.56
48555;BME280;34336;48.270;16.716;2023-02-28T10:40:05;109325.25;;;18.16;51.94
48555;BME280;34336;48.270;16.716;2023-02-28T10:42:32;109325.25;;;18.16;54.84
48555;BME280;34336;48.270;16.716;2023-02-28T10:45:15;109325.25;;;18.16;52.08
48555;BME280;34336;48.270;16.716;2023-02-28T10:53:05;109325.25;;;18.16;52.20
48555;BME280;34336;48.270;16.716;2023-02-28T10:55:33;109325.25;;;18.16;52.18
48555;BME280;34336;48.270;16.716;2023-02-28T10:57:59;109325.25;;;18.16;51.49
48555;BME280;34336;48.270;16.716;2023-02-28T11:00:26;109325.25;;;18.16;51.68
48555;BME280;34336;48.270;16.716;2023-02-28T11:02:57;109325.25;;;18.16;52.17
48555;BME280;34336;48.270;16.716;2023-02-28T11:05:31;109325.25;;;18.16;53.23
48555;BME280;34336;48.270;16.716;2023-02-28T11:08:11;109325.25;;;18.16;53.42
48555;BME280;34336;48.270;16.716;2023-02-28T11:10:39;109325.25;;;18.16;51.38
48555;BME280;34336;48.270;16.716;2023-02-28T11:13:05;109325.25;;;18.16;54.70
48555;BME280;34336;48.270;16.716;2023-02-28T11:15:33;109325.25;;;18.16;53.00
48555;BME280;34336;48.270;16.716;2023-02-28T11:18:01;109325.25;;;18.16;52.67
48555;BME280;34336;48.270;16.716;2023-02-28T11:20:29;109325.25;;;18.16;51.62
48555;BME280;34336;48.270;16.716;2023-02-28T11:22:57;109325.25;;;18.16;52.41
48555;BME280;34336;48.270;16.716;2023-02-28T11:25:32;109325.25;;;18.16;51.94
48555;BME280;34336;48.270;16.716;2023-02-28T11:28:00;109325.25;;;18.16;49.58
48555;BME280;34336;48.270;16.716;2023-02-28T11:30:29;109325.25;;;18.16;51.97
48555;BME280;34336;48.270;16.716;2023-02-28T11:32:56;109325.25;;;18.16;51.07
48555;BME280;34336;48.270;16.716;2023-02-28T11:37:52;109325.25;;;18.16;51.10
48555;BME280;34336;48.270;16.716;2023-02-28T11:40:21;109325.25;;;18.16;50.46
48555;BME280;34336;48.270;16.716;2023-02-28T11:50:58;109325.25;;;18.16;48.96
48555;BME280;34336;48.270;16.716;2023-02-28T11:54:12;109325.25;;;18.16;51.33
48555;BME280;34336;48.270;16.716;2023-02-28T11:56:36;109325.25;;;18.16;52.22
48555;BME280;34336;48.270;16.716;2023-02-28T12:05:08;109325.25;;;18.16;49.13
48555;BME280;34336;48.270;16.716;2023-02-28T12:10:04;109325.25;;;18.16;51.41
48555;BME280;34336;48.270;16.716;2023-02-28T12:12:48;109325.25;;;18.16;52.12
48555;BME280;34336;48.270;16.716;2023-02-28T12:20:32;109325.25;;;18.16;50.36
48555;BME280;34336;48.270;16.716;2023-02-28T12:26:01;109325.25;;;18.16;50.31
48555;BME280;34336;48.270;16.716;2023-02-28T12:28:34;109325.25;;;18.16;49.02
48555;BME280;34336;48.270;16.716;2023-02-28T12:31:04;109325.25;;;18.16;50.37
48555;BME280;34336;48.270;16.716;2023-02-28T12:33:34;109325.25;;;18.16;49.96
48555;BME280;34336;48.270;16.716;2023-02-28T12:36:09;109325.25;;;18.16;50.01
48555;BME280;34336;48.270;16.716;2023-02-28T12:38:38;109325.25;;;18.16;49.64
48555;BME280;34336;48.270;16.716;2023-02-28T12:41:13;109325.25;;;18.16;50.56
48555;BME280;34336;48.270;16.716;2023-02-28T12:43:45;109325.25;;;18.16;51.36
48555;BME280;34336;48.270;16.716;2023-02-28T12:48:43;109325.25;;;18.16;47.93
48555;BME280;34336;48.270;16.716;2023-02-28T12:51:12;109325.25;;;18.16;50.23
48555;BME280;34336;48.270;16.716;2023-02-28T12:58:37;109325.25;;;18.16;50.24
48555;BME280;34336;48.270;16.716;2023-02-28T13:06:20;109325.25;;;18.16;48.63
48555;BME280;34336;48.270;16.716;2023-02-28T13:11:31;109325.25;;;18.16;49.10
48555;BME280;34336;48.270;16.716;2023-02-28T13:14:00;109325.25;;;18.16;49.03
48555;BME280;34336;48.270;16.716;2023-02-28T13:16:26;109325.25;;;18.16;49.00
48555;BME280;34336;48.270;16.716;2023-02-28T13:18:56;109325.25;;;18.16;49.24
48555;BME280;34336;48.270;16.716;2023-02-28T13:21:40;109325.25;;;18.16;48.26
48555;BME280;34336;48.270;16.716;2023-02-28T13:24:08;109325.25;;;18.16;46.77
48555;BME280;34336;48.270;16.716;2023-02-28T13:34:22;109325.25;;;18.16;47.98
48555;BME280;34336;48.270;16.716;2023-02-28T13:36:48;109325.25;;;18.16;48.27
48555;BME280;34336;48.270;16.716;2023-02-28T13:39:45;109325.25;;;18.16;48.37
48555;BME280;34336;48.270;16.716;2023-02-28T13:47:29;109325.25;;;18.16;47.37
48555;BME280;34336;48.270;16.716;2023-02-28T13:50:19;109325.25;;;18.16;47.79
48555;BME280;34336;48.270;16.716;2023-02-28T14:05:34;109325.25;;;18.16;48.03
48555;BME280;34336;48.270;16.716;2023-02-28T14:08:05;109325.25;;;18.16;48.11
48555;BME280;34336;48.270;16.716;2023-02-28T14:10:34;109325.25;;;18.16;48.32
48555;BME280;34336;48.270;16.716;2023-02-28T14:13:13;109325.25;;;18.16;47.95
48555;BME280;34336;48.270;16.716;2023-02-28T14:18:37;109325.25;;;18.16;46.50
48555;BME280;34336;48.270;16.716;2023-02-28T14:31:33;109325.25;;;18.16;46.55
48555;BME280;34336;48.270;16.716;2023-02-28T14:36:43;109325.25;;;18.16;47.29
48555;BME280;34336;48.270;16.716;2023-02-28T14:41:41;109325.25;;;18.16;46.41
48555;BME280;34336;48.270;16.716;2023-02-28T14:44:15;109325.25;;;18.16;46.10
48555;BME280;34336;48.270;16.716;2023-02-28T14:46:42;109325.25;;;18.16;45.71
48555;BME280;34336;48.270;16.716;2023-02-28T14:49:17;109325.25;;;18.16;45.92
48555;BME280;34336;48.270;16.716;2023-02-28T14:51:44;109325.25;;;18.16;45.89
48555;BME280;34336;48.270;16.716;2023-02-28T14:54:13;109325.25;;;18.16;45.66
48555;BME280;34336;48.270;16.716;2023-02-28T14:56:40;109325.25;;;18.16;46.85
48555;BME280;34336;48.270;16.716;2023-02-28T15:02:12;109325.25;;;18.16;46.11
48555;BME280;34336;48.270;16.716;2023-02-28T15:04:39;109325.25;;;18.16;46.26
48555;BME280;34336;48.270;16.716;2023-02-28T15:07:09;109325.25;;;18.16;45.47